createdAt,value
2023-03-27T00:02:24.758Z,97048.31
2023-03-27T00:05:28.453Z,97051.22
2023-03-27T00:08:32.686Z,97059.28
2023-03-27T00:11:36.158Z,97053.56
2023-03-27T00:14:40.192Z,97054.38
2023-03-27T00:17:47.736Z,97058.94
2023-03-27T00:20:52.082Z,97061.03
2023-03-27T00:23:56.007Z,97064.53
2023-03-27T00:26:59.988Z,97069.19
2023-03-27T00:30:06.360Z,97058.53
2023-03-27T00:33:13.392Z,97062.03
2023-03-27T00:36:16.842Z,97056.66
2023-03-27T00:39:20.979Z,97067.16
2023-03-27T00:42:25.628Z,97058.28
2023-03-27T00:45:35.054Z,97054.56
2023-03-27T00:48:40.336Z,97054.56
2023-03-27T00:51:48.698Z,97053.50
2023-03-27T00:54:52.593Z,97050.00
2023-03-27T00:58:04.869Z,97051.88
2023-03-27T01:01:13.802Z,97043.81
2023-03-27T01:04:21.370Z,97045.69
2023-03-27T01:07:25.949Z,97043.00
2023-03-27T01:10:48.284Z,97037.88
2023-03-27T01:14:13.312Z,97044.00
2023-03-27T01:17:42.088Z,97045.28
2023-03-27T01:21:47.950Z,97045.88
2023-03-27T01:25:38.122Z,97038.28
2023-03-27T01:28:56.359Z,97027.34
2023-03-27T01:32:41.621Z,97031.97
2023-03-27T01:36:26.013Z,97027.16
2023-03-27T01:39:50.518Z,97028.56
2023-03-27T01:43:06.498Z,97024.25
2023-03-27T01:46:24.181Z,97017.25
2023-03-27T01:49:40.151Z,97014.81
2023-03-27T01:52:54.929Z,97010.53
2023-03-27T01:56:08.320Z,97000.28
2023-03-27T01:59:17.765Z,97006.47
2023-03-27T02:02:30.009Z,97018.00
2023-03-27T02:05:40.029Z,97001.91
2023-03-27T02:08:52.026Z,96998.19
2023-03-27T02:12:07.480Z,96990.63
2023-03-27T02:15:23.391Z,96991.44
2023-03-27T02:18:36.670Z,96997.59
2023-03-27T02:21:40.303Z,96982.56
2023-03-27T02:24:44.749Z,96984.19
2023-03-27T02:27:59.520Z,96989.56
2023-03-27T02:31:33.061Z,96982.56
2023-03-27T02:35:08.389Z,96987.38
2023-03-27T02:38:25.274Z,96979.31
2023-03-27T02:41:39.175Z,96974.78
2023-03-27T02:44:52.511Z,96978.50
2023-03-27T02:48:08.380Z,96979.78
2023-03-27T02:51:22.463Z,96975.19
2023-03-27T02:54:34.001Z,96985.56
2023-03-27T02:57:40.131Z,96990.59
2023-03-27T03:01:13.775Z,96996.19
2023-03-27T03:04:46.210Z,97000.50
2023-03-27T03:07:54.405Z,97004.22
2023-03-27T03:11:06.027Z,97005.78
2023-03-27T03:14:10.445Z,97010.34
2023-03-27T03:17:17.642Z,97009.75
2023-03-27T03:20:22.031Z,97007.56
2023-03-27T03:23:26.394Z,96997.06
2023-03-27T03:26:31.014Z,97003.00
2023-03-27T03:29:37.494Z,96999.41
2023-03-27T03:33:02.812Z,97004.19
2023-03-27T03:36:09.088Z,96999.41
2023-03-27T03:39:16.759Z,97014.19
2023-03-27T03:42:24.213Z,97015.59
2023-03-27T03:45:30.752Z,97013.50
2023-03-27T03:48:36.464Z,97009.53
2023-03-27T03:51:40.068Z,97004.97
2023-03-27T03:54:46.553Z,97020.25
2023-03-27T03:57:50.567Z,97014.88
2023-03-27T04:01:03.289Z,97023.97
2023-03-27T04:04:15.956Z,97023.38
2023-03-27T04:07:39.957Z,97013.72
2023-03-27T04:10:57.305Z,97018.75
2023-03-27T04:14:19.976Z,97024.56
2023-03-27T04:17:27.228Z,97019.72
2023-03-27T04:20:34.713Z,97024.25
2023-03-27T04:23:40.458Z,97024.72
2023-03-27T04:26:44.594Z,97019.03
2023-03-27T04:29:57.093Z,97018.69
2023-03-27T04:33:39.259Z,97012.78
2023-03-27T04:37:07.154Z,97022.41
2023-03-27T04:40:15.608Z,97016.50
2023-03-27T04:43:19.352Z,97028.84
2023-03-27T04:46:23.751Z,97022.41
2023-03-27T04:49:38.654Z,97017.88
2023-03-27T04:52:58.706Z,97027.78
2023-03-27T04:56:07.232Z,97035.56
2023-03-27T04:59:15.610Z,97033.13
2023-03-27T05:02:21.506Z,97039.56
2023-03-27T05:05:30.579Z,97035.03
2023-03-27T05:08:35.985Z,97037.94
2023-03-27T05:11:40.020Z,97038.50
2023-03-27T05:14:48.652Z,97039.56
2023-03-27T05:18:09.090Z,97048.88
2023-03-27T05:21:13.540Z,97044.34
2023-03-27T05:24:19.572Z,97036.88
2023-03-27T05:27:24.076Z,97040.38
2023-03-27T05:30:31.738Z,97039.06
2023-03-27T05:33:47.699Z,97050.03
2023-03-27T05:36:51.812Z,97043.06
2023-03-27T05:39:56.984Z,97049.78
2023-03-27T05:43:01.103Z,97050.38
2023-03-27T05:46:07.775Z,97050.94
2023-03-27T05:49:12.938Z,97055.50
2023-03-27T05:52:17.634Z,97058.28
2023-03-27T05:55:26.996Z,97062.91
2023-03-27T05:58:32.356Z,97076.88
2023-03-27T06:01:40.058Z,97080.13
2023-03-27T06:04:43.818Z,97075.00
2023-03-27T06:07:52.711Z,97075.25
2023-03-27T06:10:57.855Z,97081.19
2023-03-27T06:14:09.769Z,97081.28
2023-03-27T06:17:28.298Z,97081.38
2023-03-27T06:20:38.015Z,97087.78
2023-03-27T06:23:41.903Z,97102.50
2023-03-27T06:26:52.766Z,97099.59
2023-03-27T06:29:56.918Z,97109.22
2023-03-27T06:33:02.985Z,97115.75
2023-03-27T06:36:08.716Z,97126.00
2023-03-27T06:39:14.113Z,97120.41
2023-03-27T06:42:26.168Z,97128.22
2023-03-27T06:45:53.815Z,97135.44
2023-03-27T06:49:23.774Z,97140.28
2023-03-27T06:52:28.668Z,97152.41
2023-03-27T06:55:45.610Z,97158.50
2023-03-27T06:58:51.538Z,97178.44
2023-03-27T07:01:58.354Z,97183.00
2023-03-27T07:05:28.534Z,97188.72
2023-03-27T07:08:32.431Z,97189.88
2023-03-27T07:11:36.809Z,97201.34
2023-03-27T07:14:46.245Z,97208.88
2023-03-27T07:17:55.525Z,97223.69
2023-03-27T07:21:00.051Z,97234.28
2023-03-27T07:24:08.628Z,97242.44
2023-03-27T07:27:14.071Z,97237.53
2023-03-27T07:30:20.344Z,97242.44
2023-03-27T07:33:24.197Z,97251.50
2023-03-27T07:36:28.812Z,97268.13
2023-03-27T07:39:52.689Z,97252.63
2023-03-27T07:43:02.320Z,97263.31
2023-03-27T07:46:08.089Z,97272.41
2023-03-27T07:49:13.449Z,97272.06
2023-03-27T07:52:16.987Z,97278.94
2023-03-27T07:55:33.030Z,97284.75
2023-03-27T07:58:42.882Z,97285.84
2023-03-27T08:01:50.654Z,97295.53
2023-03-27T08:04:56.378Z,97292.94
2023-03-27T08:08:01.377Z,97307.22
2023-03-27T08:11:30.716Z,97306.28
2023-03-27T08:14:35.585Z,97300.72
2023-03-27T08:17:53.893Z,97318.44
2023-03-27T08:21:03.900Z,97330.84
2023-03-27T08:24:09.724Z,97324.28
2023-03-27T08:27:33.984Z,97328.97
2023-03-27T08:30:38.573Z,97336.50
2023-03-27T08:33:44.316Z,97336.13
2023-03-27T08:36:55.715Z,97340.38
2023-03-27T08:40:13.990Z,97347.47
2023-03-27T08:43:26.681Z,97354.06
2023-03-27T08:46:40.002Z,97359.69
2023-03-27T08:49:53.545Z,97368.09
2023-03-27T08:53:04.609Z,97372.22
2023-03-27T08:56:16.047Z,97378.28
2023-03-27T08:59:26.379Z,97380.88
2023-03-27T09:02:45.927Z,97391.59
2023-03-27T09:06:00.423Z,97386.97
2023-03-27T09:09:19.977Z,97385.41
2023-03-27T09:12:45.954Z,97392.41
2023-03-27T09:15:59.561Z,97393.88
2023-03-27T09:19:17.019Z,97394.47
2023-03-27T09:22:28.427Z,97403.91
2023-03-27T09:25:56.366Z,97415.13
2023-03-27T09:29:40.763Z,97427.69
2023-03-27T09:33:07.327Z,97424.50
2023-03-27T09:36:11.509Z,97439.19
2023-03-27T09:39:22.532Z,97442.59
2023-03-27T09:42:43.563Z,97442.66
2023-03-27T09:45:53.907Z,97450.84
2023-03-27T09:49:02.751Z,97453.94
2023-03-27T09:52:07.956Z,97464.09
2023-03-27T09:55:30.647Z,97457.78
2023-03-27T09:58:43.969Z,97451.06
2023-03-27T10:01:50.716Z,97454.22
2023-03-27T10:05:01.460Z,97458.78
2023-03-27T10:08:38.355Z,97453.31
2023-03-27T10:11:50.379Z,97462.75
2023-03-27T10:15:01.451Z,97466.41
2023-03-27T10:18:27.181Z,97467.88
2023-03-27T10:21:44.003Z,97481.84
2023-03-27T10:25:00.425Z,97474.47
2023-03-27T10:28:31.871Z,97480.72
2023-03-27T10:31:53.373Z,97492.91
2023-03-27T10:35:29.303Z,97495.75
2023-03-27T10:38:56.265Z,97503.78
2023-03-27T10:42:22.863Z,97503.22
2023-03-27T10:45:29.581Z,97511.44
2023-03-27T10:48:49.724Z,97496.88
2023-03-27T10:52:14.421Z,97507.34
2023-03-27T10:55:48.625Z,97509.69
2023-03-27T10:59:01.750Z,97515.25
2023-03-27T11:02:21.698Z,97507.25
2023-03-27T11:05:34.845Z,97517.50
2023-03-27T11:09:05.876Z,97520.19
2023-03-27T11:12:15.519Z,97525.94
2023-03-27T11:15:39.848Z,97531.84
2023-03-27T11:19:31.151Z,97529.50
2023-03-27T11:23:03.152Z,97552.16
2023-03-27T11:26:20.561Z,97556.91
2023-03-27T11:29:33.330Z,97573.41
2023-03-27T11:32:49.851Z,97568.91
2023-03-27T11:36:06.500Z,97563.00
2023-03-27T11:39:33.289Z,97567.72
2023-03-27T11:42:44.680Z,97573.69
2023-03-27T11:46:06.877Z,97566.09
2023-03-27T11:49:36.343Z,97581.31
2023-03-27T11:53:02.292Z,97581.91
2023-03-27T11:56:52.107Z,97586.69
2023-03-27T12:00:25.484Z,97592.03
2023-03-27T12:04:13.357Z,97595.34
2023-03-27T12:08:00.161Z,97611.19
2023-03-27T12:11:12.382Z,97605.28
2023-03-27T12:14:46.679Z,97615.13
2023-03-27T12:18:13.392Z,97615.16
2023-03-27T12:21:46.586Z,97630.16
2023-03-27T12:25:24.388Z,97643.50
2023-03-27T12:29:23.358Z,97639.59
2023-03-27T12:33:12.138Z,97652.94
2023-03-27T12:36:24.279Z,97661.16
2023-03-27T12:39:30.075Z,97649.88
2023-03-27T12:42:52.855Z,97667.31
2023-03-27T12:46:17.525Z,97659.09
2023-03-27T12:49:48.175Z,97671.00
2023-03-27T12:53:05.819Z,97680.03
2023-03-27T12:56:37.304Z,97673.06
2023-03-27T12:59:55.028Z,97679.59
2023-03-27T13:03:43.788Z,97695.19
2023-03-27T13:06:58.030Z,97699.72
2023-03-27T13:10:36.906Z,97722.94
2023-03-27T13:14:22.224Z,97740.78
2023-03-27T13:17:48.978Z,97738.72
2023-03-27T13:21:09.925Z,97739.97
2023-03-27T13:24:37.767Z,97747.34
2023-03-27T13:28:16.709Z,97750.22
2023-03-27T13:32:31.025Z,97746.75
2023-03-27T13:36:14.543Z,97754.72
2023-03-27T13:39:24.724Z,97760.91
2023-03-27T13:42:46.218Z,97751.06
2023-03-27T13:45:54.055Z,97776.31
2023-03-27T13:49:34.642Z,97765.00
2023-03-27T13:53:17.811Z,97774.66
2023-03-27T13:57:00.389Z,97775.09
2023-03-27T14:00:47.344Z,97785.13
2023-03-27T14:04:29.330Z,97787.16
2023-03-27T14:08:08.616Z,97790.25
2023-03-27T14:11:59.302Z,97783.88
2023-03-27T14:15:54.484Z,97793.53
2023-03-27T14:19:40.026Z,97788.41
2023-03-27T14:22:57.108Z,97783.91
2023-03-27T14:26:14.507Z,97790.88
2023-03-27T14:29:21.329Z,97784.31
2023-03-27T14:32:30.299Z,97794.16
2023-03-27T14:35:37.554Z,97796.59
2023-03-27T14:38:44.483Z,97798.66
2023-03-27T14:41:53.379Z,97800.28
2023-03-27T14:45:20.589Z,97810.56
2023-03-27T14:48:31.809Z,97818.97
2023-03-27T14:51:42.303Z,97818.56
2023-03-27T14:54:57.856Z,97830.25
2023-03-27T14:58:18.402Z,97840.53
2023-03-27T15:01:26.220Z,97859.41
2023-03-27T15:04:35.915Z,97856.75
2023-03-27T15:07:48.841Z,97876.22
2023-03-27T15:11:01.888Z,97880.53
2023-03-27T15:14:32.203Z,97884.66
2023-03-27T15:17:39.076Z,97888.78
2023-03-27T15:20:44.625Z,97891.69
2023-03-27T15:24:02.031Z,97913.69
2023-03-27T15:27:08.473Z,97905.31
2023-03-27T15:30:28.289Z,97915.97
2023-03-27T15:33:42.659Z,97925.44
2023-03-27T15:36:52.518Z,97930.78
2023-03-27T15:40:41.823Z,97934.69
2023-03-27T15:43:46.730Z,97945.38
2023-03-27T15:46:56.220Z,97941.47
2023-03-27T15:50:22.494Z,97952.13
2023-03-27T15:53:37.838Z,97964.69
2023-03-27T15:56:44.763Z,97972.50
2023-03-27T15:59:51.856Z,97975.56
2023-03-27T16:02:57.811Z,97974.06
2023-03-27T16:06:05.329Z,97981.81
2023-03-27T16:09:25.808Z,97986.09
2023-03-27T16:12:34.377Z,97985.00
2023-03-27T16:15:41.867Z,97986.22
2023-03-27T16:18:47.617Z,97994.34
2023-03-27T16:21:58.715Z,97994.78
2023-03-27T16:25:04.886Z,98008.84
2023-03-27T16:28:12.451Z,98002.84
2023-03-27T16:31:20.082Z,98011.00
2023-03-27T16:34:23.952Z,98020.78
2023-03-27T16:37:29.399Z,98021.78
2023-03-27T16:40:33.240Z,98023.25
2023-03-27T16:43:36.782Z,98028.66
2023-03-27T16:46:41.009Z,98031.13
2023-03-27T16:49:51.119Z,98051.19
2023-03-27T16:53:02.288Z,98041.28
2023-03-27T16:56:07.113Z,98051.47
2023-03-27T16:59:11.407Z,98057.31
2023-03-27T17:02:15.128Z,98058.22
2023-03-27T17:05:19.511Z,98059.38
2023-03-27T17:08:24.656Z,98055.56
2023-03-27T17:11:28.738Z,98069.56
2023-03-27T17:14:32.240Z,98068.19
2023-03-27T17:17:36.004Z,98087.78
2023-03-27T17:20:39.554Z,98079.34
2023-03-27T17:23:48.330Z,98081.66
2023-03-27T17:26:51.855Z,98090.31
2023-03-27T17:29:56.785Z,98096.09
2023-03-27T17:33:00.719Z,98100.03
2023-03-27T17:36:09.915Z,98108.09
2023-03-27T17:39:15.007Z,98112.50
2023-03-27T17:42:19.038Z,98101.41
2023-03-27T17:45:23.785Z,98113.50
2023-03-27T17:48:28.042Z,98120.78
2023-03-27T17:51:31.599Z,98114.72
2023-03-27T17:54:37.127Z,98120.13
2023-03-27T17:57:41.582Z,98132.88
2023-03-27T18:00:46.020Z,98132.16
2023-03-27T18:03:51.829Z,98128.94
2023-03-27T18:06:56.151Z,98135.78
2023-03-27T18:10:01.520Z,98141.38
2023-03-27T18:13:05.741Z,98146.31
2023-03-27T18:16:10.997Z,98144.88
2023-03-27T18:19:15.377Z,98148.09
2023-03-27T18:22:18.993Z,98147.78
2023-03-27T18:25:25.009Z,98150.88
2023-03-27T18:28:28.730Z,98156.28
2023-03-27T18:31:32.902Z,98165.94
2023-03-27T18:34:36.576Z,98166.16
2023-03-27T18:37:40.981Z,98164.03
2023-03-27T18:40:45.853Z,98167.41
2023-03-27T18:43:50.225Z,98168.59
2023-03-27T18:46:54.203Z,98180.72
2023-03-27T18:49:58.859Z,98179.22
2023-03-27T18:53:02.402Z,98177.41
2023-03-27T18:56:09.083Z,98181.72
2023-03-27T18:59:14.378Z,98184.03
2023-03-27T19:02:19.485Z,98171.06
2023-03-27T19:05:23.339Z,98178.13
2023-03-27T19:08:27.381Z,98178.09
2023-03-27T19:11:32.667Z,98187.53
2023-03-27T19:15:20.313Z,98186.91
2023-03-27T19:18:42.820Z,98192.25
2023-03-27T19:22:12.812Z,98203.44
2023-03-27T19:25:23.906Z,98198.84
2023-03-27T19:28:29.072Z,98192.06
2023-03-27T19:31:32.733Z,98198.09
2023-03-27T19:34:42.973Z,98199.41
2023-03-27T19:37:47.264Z,98203.78
2023-03-27T19:40:51.363Z,98200.97
2023-03-27T19:43:57.756Z,98213.94
2023-03-27T19:47:03.854Z,98220.56
2023-03-27T19:50:09.583Z,98220.09
2023-03-27T19:53:23.435Z,98226.09
2023-03-27T19:56:27.466Z,98213.81
2023-03-27T19:59:32.814Z,98220.63
2023-03-27T20:02:37.016Z,98227.25
2023-03-27T20:05:41.790Z,98228.59
2023-03-27T20:08:46.005Z,98226.13
2023-03-27T20:11:53.367Z,98244.34
2023-03-27T20:15:11.039Z,98237.72
2023-03-27T20:18:22.197Z,98240.22
2023-03-27T20:21:26.386Z,98247.00
2023-03-27T20:24:30.260Z,98248.34
2023-03-27T20:27:36.248Z,98246.03
2023-03-27T20:30:43.027Z,98245.69
2023-03-27T20:33:47.525Z,98250.69
2023-03-27T20:36:53.124Z,98245.03
2023-03-27T20:40:20.158Z,98253.66
2023-03-27T20:43:24.007Z,98251.34
2023-03-27T20:46:30.488Z,98249.31
2023-03-27T20:49:41.134Z,98241.06
2023-03-27T20:52:46.168Z,98244.19
2023-03-27T20:55:59.346Z,98243.84
2023-03-27T20:59:03.480Z,98250.66
2023-03-27T21:02:08.681Z,98242.19
2023-03-27T21:05:12.335Z,98251.28
2023-03-27T21:08:16.822Z,98249.94
2023-03-27T21:11:20.611Z,98252.28
2023-03-27T21:14:25.044Z,98258.56
2023-03-27T21:17:30.070Z,98252.91
2023-03-27T21:20:35.347Z,98253.56
2023-03-27T21:23:39.512Z,98257.38
2023-03-27T21:26:43.652Z,98253.06
2023-03-27T21:29:47.265Z,98259.50
2023-03-27T21:32:52.633Z,98256.19
2023-03-27T21:35:56.230Z,98255.53
2023-03-27T21:39:00.267Z,98250.56
2023-03-27T21:42:03.833Z,98251.53
2023-03-27T21:45:09.530Z,98261.47
2023-03-27T21:48:14.522Z,98249.53
2023-03-27T21:51:18.586Z,98254.16
2023-03-27T21:54:22.451Z,98256.16
2023-03-27T21:57:26.511Z,98246.56
2023-03-27T22:00:30.344Z,98244.22
2023-03-27T22:03:35.636Z,98250.13
2023-03-27T22:06:39.136Z,98245.81
2023-03-27T22:09:45.399Z,98242.53
2023-03-27T22:12:48.959Z,98247.81
2023-03-27T22:15:52.765Z,98243.84
2023-03-27T22:18:57.771Z,98242.34
2023-03-27T22:22:01.571Z,98242.63
2023-03-27T22:25:06.475Z,98244.81
2023-03-27T22:28:10.758Z,98240.16
2023-03-27T22:31:14.639Z,98238.69
2023-03-27T22:34:19.848Z,98245.09
2023-03-27T22:37:24.715Z,98245.09
2023-03-27T22:40:28.904Z,98244.28
2023-03-27T22:43:32.604Z,98249.88
2023-03-27T22:46:36.685Z,98254.34
2023-03-27T22:49:41.967Z,98251.84
2023-03-27T22:52:45.712Z,98254.66
2023-03-27T22:55:50.493Z,98250.19
2023-03-27T22:58:54.504Z,98249.34
2023-03-27T23:01:58.383Z,98246.72
2023-03-27T23:05:04.282Z,98241.75
2023-03-27T23:08:07.945Z,98250.69
2023-03-27T23:11:14.898Z,98248.66
2023-03-27T23:14:18.756Z,98253.41
2023-03-27T23:17:22.592Z,98245.34
2023-03-27T23:20:28.340Z,98249.63
2023-03-27T23:23:35.311Z,98260.22
2023-03-27T23:26:39.150Z,98261.19
2023-03-27T23:29:42.918Z,98261.19
2023-03-27T23:32:46.640Z,98264.81
2023-03-27T23:35:52.907Z,98270.94
2023-03-27T23:38:56.913Z,98267.16
2023-03-27T23:42:01.244Z,98269.81
2023-03-27T23:45:05.707Z,98263.84
2023-03-27T23:48:09.783Z,98266.47
2023-03-27T23:51:17.114Z,98271.78
2023-03-27T23:54:21.207Z,98266.47
2023-03-27T23:57:25.532Z,98278.72
